createdAt,value
2017-03-08T00:00:16.474Z,83.61
2017-03-08T00:01:26.231Z,83.98
2017-03-08T00:02:35.571Z,84.27
2017-03-08T00:03:45.323Z,83.98
2017-03-08T00:04:55.479Z,84.84
2017-03-08T00:06:05.534Z,85.13
2017-03-08T00:07:14.861Z,84.84
2017-03-08T00:08:24.612Z,84.55
2017-03-08T00:09:33.943Z,85.13
2017-03-08T00:10:42.906Z,84.74
2017-03-08T00:11:52.401Z,84.84
2017-03-08T00:13:01.721Z,85.69
2017-03-08T00:14:11.498Z,85.5
2017-03-08T00:15:21.639Z,86.07
2017-03-08T00:16:30.594Z,86.26
2017-03-08T00:17:40.399Z,86.45
2017-03-08T00:18:50.129Z,86.07
2017-03-08T00:19:59.858Z,86.16
2017-03-08T00:21:10.017Z,86.07
2017-03-08T00:22:19.338Z,86.64
2017-03-08T00:23:28.847Z,86.83
2017-03-08T00:24:38.601Z,86.35
2017-03-08T00:25:48.348Z,86.45
2017-03-08T00:26:58.086Z,86.74
2017-03-08T00:28:07.840Z,87.02
2017-03-08T00:29:18.555Z,86.93
2017-03-08T00:30:27.901Z,87.21
2017-03-08T00:31:37.644Z,87.4
2017-03-08T00:32:46.976Z,87.21
2017-03-08T00:33:56.295Z,86.93
2017-03-08T00:35:05.885Z,86.83
2017-03-08T00:36:14.806Z,87.02
2017-03-08T00:37:24.151Z,87.4
2017-03-08T00:38:33.879Z,87.59
2017-03-08T00:39:43.210Z,87.77
2017-03-08T00:40:52.996Z,88.25
2017-03-08T00:42:02.316Z,87.97
2017-03-08T00:43:11.645Z,87.59
2017-03-08T00:44:20.986Z,88.06
2017-03-08T00:45:30.770Z,87.59
2017-03-08T00:46:40.347Z,87.68
2017-03-08T00:47:49.684Z,87.97
2017-03-08T00:48:58.605Z,87.64
2017-03-08T00:50:08.761Z,88.21
2017-03-08T00:51:18.084Z,88.78
2017-03-08T00:52:28.283Z,88.11
2017-03-08T00:53:38.013Z,88.87
2017-03-08T00:54:47.398Z,88.68
2017-03-08T00:55:56.717Z,88.78
2017-03-08T00:57:05.626Z,88.49
2017-03-08T00:58:15.662Z,88.78
2017-03-08T00:59:25.000Z,88.68
2017-03-08T01:00:34.739Z,88.78
2017-03-08T01:01:44.881Z,87.83
2017-03-08T01:02:55.038Z,88.11
2017-03-08T01:04:05.232Z,88.02
2017-03-08T01:05:14.568Z,88.59
2017-03-08T01:06:24.315Z,88.68
2017-03-08T01:07:34.039Z,88.87
2017-03-08T01:08:43.369Z,88.87
2017-03-08T01:09:53.294Z,88.3
2017-03-08T01:11:03.034Z,88.02
2017-03-08T01:12:12.378Z,88.02
2017-03-08T01:13:22.113Z,87.92
2017-03-08T01:14:31.054Z,88.3
2017-03-08T01:15:41.210Z,88.68
2017-03-08T01:16:50.535Z,88.87
2017-03-08T01:18:00.276Z,89.06
2017-03-08T01:19:09.197Z,89.63
2017-03-08T01:20:19.341Z,90.1
2017-03-08T01:21:29.384Z,89.91
2017-03-08T01:22:38.303Z,89.34
2017-03-08T01:23:48.446Z,89.2
2017-03-08T01:24:58.172Z,89.39
2017-03-08T01:26:07.949Z,89.91
2017-03-08T01:27:18.236Z,90.2
2017-03-08T01:28:27.147Z,90.06
2017-03-08T01:29:36.472Z,89.87
2017-03-08T01:30:45.795Z,89.3
2017-03-08T01:31:55.528Z,89.87
2017-03-08T01:33:05.879Z,89.49
2017-03-08T01:34:15.204Z,89.87
2017-03-08T01:35:24.131Z,90.34
2017-03-08T01:36:33.059Z,90.25
2017-03-08T01:37:42.792Z,90.34
2017-03-08T01:38:52.527Z,90.44
2017-03-08T01:40:01.460Z,91
2017-03-08T01:41:11.210Z,91.19
2017-03-08T01:42:21.605Z,90.81
2017-03-08T01:43:30.953Z,90.81
2017-03-08T01:44:40.330Z,91
2017-03-08T01:45:50.070Z,90.91
2017-03-08T01:46:59.412Z,90.53
2017-03-08T01:48:09.574Z,90.81
2017-03-08T01:49:19.717Z,90.91
2017-03-08T01:50:29.208Z,91.29
2017-03-08T01:51:38.527Z,91.19
2017-03-08T01:52:47.845Z,91.19
2017-03-08T01:53:57.172Z,91.38
2017-03-08T01:55:06.499Z,91.86
2017-03-08T01:56:16.088Z,91.76
2017-03-08T01:57:26.241Z,91.67
2017-03-08T01:58:35.568Z,92.14
2017-03-08T01:59:44.937Z,92.05
2017-03-08T02:00:54.664Z,92.05
2017-03-08T02:02:03.733Z,92.33
2017-03-08T02:03:13.051Z,92.14
2017-03-08T02:04:23.213Z,92.52
2017-03-08T02:05:32.550Z,92.24
2017-03-08T02:06:41.459Z,92.24
2017-03-08T02:07:51.233Z,92.43
2017-03-08T02:09:00.546Z,92.8
2017-03-08T02:10:10.276Z,92.43
2017-03-08T02:11:19.610Z,92.43
2017-03-08T02:12:29.764Z,92.52
2017-03-08T02:13:39.653Z,92.43
2017-03-08T02:14:49.382Z,92.43
2017-03-08T02:15:58.719Z,92.71
2017-03-08T02:17:08.051Z,92.99
2017-03-08T02:18:17.786Z,92.8
2017-03-08T02:19:27.277Z,92.52
2017-03-08T02:20:36.598Z,92.8
2017-03-08T02:21:45.935Z,92.52
2017-03-08T02:22:56.068Z,92.52
2017-03-08T02:24:05.385Z,92.43
2017-03-08T02:25:15.167Z,92.71
2017-03-08T02:26:24.534Z,92.14
2017-03-08T02:27:34.321Z,92.24
2017-03-08T02:28:43.642Z,92.14
2017-03-08T02:29:52.988Z,92.24
2017-03-08T02:31:02.559Z,92.14
2017-03-08T02:32:12.303Z,92.14
2017-03-08T02:33:22.864Z,92.14
2017-03-08T02:34:31.799Z,92.43
2017-03-08T02:35:41.536Z,92.43
2017-03-08T02:36:51.428Z,92.43
2017-03-08T02:38:01.577Z,92.43
2017-03-08T02:39:11.312Z,92.52
2017-03-08T02:40:21.041Z,92.52
2017-03-08T02:41:31.212Z,92.24
2017-03-08T02:42:40.609Z,91.67
2017-03-08T02:43:49.549Z,91.76
2017-03-08T02:44:59.291Z,91.29
2017-03-08T02:46:09.021Z,91.67
2017-03-08T02:47:18.759Z,91.19
2017-03-08T02:48:28.247Z,91.38
2017-03-08T02:49:38.391Z,91.67
2017-03-08T02:50:47.731Z,90.81
2017-03-08T02:51:57.482Z,91
2017-03-08T02:53:07.649Z,91
2017-03-08T02:54:17.018Z,91.19
2017-03-08T02:55:26.367Z,91.19
2017-03-08T02:56:35.693Z,91
2017-03-08T02:57:45.875Z,90.72
2017-03-08T02:58:55.210Z,90.91
2017-03-08T03:00:05.084Z,90.91
2017-03-08T03:01:14.826Z,90.72
2017-03-08T03:02:23.743Z,90.72
2017-03-08T03:03:33.471Z,90.53
2017-03-08T03:04:42.809Z,90.53
2017-03-08T03:05:52.296Z,90.53
2017-03-08T03:07:02.030Z,90.53
2017-03-08T03:08:11.775Z,90.81
2017-03-08T03:09:21.514Z,91.38
2017-03-08T03:10:30.863Z,91.67
2017-03-08T03:11:40.722Z,91.29
2017-03-08T03:12:49.654Z,91
2017-03-08T03:13:59.382Z,91
2017-03-08T03:15:09.111Z,91.19
2017-03-08T03:16:18.441Z,91.1
2017-03-08T03:17:28.008Z,91
2017-03-08T03:18:37.755Z,90.95
2017-03-08T03:19:47.092Z,90.77
2017-03-08T03:20:56.833Z,90.95
2017-03-08T03:22:05.744Z,91.81
2017-03-08T03:23:15.365Z,91.14
2017-03-08T03:24:24.295Z,91.14
2017-03-08T03:25:33.620Z,90.67
2017-03-08T03:26:42.533Z,91.24
2017-03-08T03:27:52.674Z,91.33
2017-03-08T03:29:02.579Z,90.58
2017-03-08T03:30:11.504Z,91.52
2017-03-08T03:31:21.650Z,91.43
2017-03-08T03:32:30.560Z,91.33
2017-03-08T03:33:40.336Z,91.71
2017-03-08T03:34:49.762Z,91.43
2017-03-08T03:35:59.082Z,91.24
2017-03-08T03:37:08.847Z,91.43
2017-03-08T03:38:18.576Z,91.24
2017-03-08T03:39:27.523Z,90.95
2017-03-08T03:40:36.500Z,91.43
2017-03-08T03:41:45.425Z,91.24
2017-03-08T03:42:55.151Z,91.24
2017-03-08T03:44:04.891Z,91.43
2017-03-08T03:45:14.246Z,91.14
2017-03-08T03:46:23.319Z,92
2017-03-08T03:47:32.638Z,91.24
2017-03-08T03:48:42.788Z,91.33
2017-03-08T03:49:52.917Z,91.52
2017-03-08T03:51:02.259Z,91.62
2017-03-08T03:52:12.142Z,91.71
2017-03-08T03:53:22.693Z,91.81
2017-03-08T03:54:32.446Z,92.28
2017-03-08T03:55:42.586Z,91.9
2017-03-08T03:56:51.924Z,92.09
2017-03-08T03:58:01.457Z,92.38
2017-03-08T03:59:10.780Z,92.19
2017-03-08T04:00:20.110Z,92.09
2017-03-08T04:01:29.432Z,92.28
2017-03-08T04:02:39.180Z,92
2017-03-08T04:03:48.520Z,91.81
2017-03-08T04:04:57.435Z,91.71
2017-03-08T04:06:07.174Z,91.9
2017-03-08T04:07:17.310Z,91.9
2017-03-08T04:08:27.052Z,92
2017-03-08T04:09:36.973Z,92.57
2017-03-08T04:10:46.730Z,92.09
2017-03-08T04:11:56.480Z,92.28
2017-03-08T04:13:05.801Z,92.38
2017-03-08T04:14:15.933Z,91.62
2017-03-08T04:15:24.996Z,91.62
2017-03-08T04:16:35.139Z,91.9
2017-03-08T04:17:45.271Z,91.43
2017-03-08T04:18:55.823Z,91.81
2017-03-08T04:20:05.183Z,92.28
2017-03-08T04:21:15.526Z,91.9
2017-03-08T04:22:25.265Z,91.62
2017-03-08T04:23:34.183Z,91.62
2017-03-08T04:24:43.101Z,92.28
2017-03-08T04:25:52.827Z,91.81
2017-03-08T04:27:02.723Z,92
2017-03-08T04:28:12.040Z,91.62
2017-03-08T04:29:21.398Z,91.81
2017-03-08T04:30:30.337Z,92.28
2017-03-08T04:31:39.672Z,92.09
2017-03-08T04:32:49.109Z,92.19
2017-03-08T04:33:58.033Z,92.19
2017-03-08T04:35:07.392Z,92.57
2017-03-08T04:36:16.308Z,92.28
2017-03-08T04:37:25.654Z,92.28
2017-03-08T04:38:35.985Z,92.19
2017-03-08T04:39:46.132Z,92.28
2017-03-08T04:40:55.079Z,92.28
2017-03-08T04:42:04.842Z,92.28
2017-03-08T04:43:14.575Z,92.57
2017-03-08T04:44:24.773Z,92.76
2017-03-08T04:45:34.545Z,93.04
2017-03-08T04:46:45.090Z,93.04
2017-03-08T04:47:54.409Z,93.51
2017-03-08T04:49:03.327Z,93.51
2017-03-08T04:50:13.625Z,93.13
2017-03-08T04:51:22.560Z,93.04
2017-03-08T04:52:31.472Z,93.04
2017-03-08T04:53:40.404Z,92.66
2017-03-08T04:54:50.134Z,92.94
2017-03-08T04:56:00.034Z,92.28
2017-03-08T04:57:09.783Z,93.13
2017-03-08T04:58:19.111Z,93.13
2017-03-08T04:59:28.839Z,93.04
2017-03-08T05:00:38.996Z,93.04
2017-03-08T05:01:48.135Z,93.13
2017-03-08T05:02:57.461Z,93.13
2017-03-08T05:04:06.802Z,93.42
2017-03-08T05:05:16.538Z,93.8
2017-03-08T05:06:25.456Z,93.42
2017-03-08T05:07:34.431Z,93.42
2017-03-08T05:08:44.165Z,93.8
2017-03-08T05:09:53.912Z,94.18
2017-03-08T05:11:03.641Z,93.99
2017-03-08T05:12:12.568Z,93.8
2017-03-08T05:13:21.539Z,93.99
2017-03-08T05:14:30.855Z,94.46
2017-03-08T05:15:40.171Z,94.74
2017-03-08T05:16:49.499Z,94.6
2017-03-08T05:17:58.826Z,94.18
2017-03-08T05:19:08.703Z,94.46
2017-03-08T05:20:18.039Z,94.37
2017-03-08T05:21:27.399Z,93.99
2017-03-08T05:22:36.314Z,93.99
2017-03-08T05:23:45.644Z,94.46
2017-03-08T05:24:55.269Z,94.27
2017-03-08T05:26:05.019Z,94.18
2017-03-08T05:27:14.741Z,94.65
2017-03-08T05:28:23.661Z,94.74
2017-03-08T05:29:32.585Z,94.18
2017-03-08T05:30:42.366Z,95.03
2017-03-08T05:31:51.697Z,95.12
2017-03-08T05:33:01.442Z,95.12
2017-03-08T05:34:10.361Z,95.22
2017-03-08T05:35:19.674Z,94.93
2017-03-08T05:36:28.747Z,95.22
2017-03-08T05:37:38.893Z,95.22
2017-03-08T05:38:48.641Z,95.22
2017-03-08T05:39:58.371Z,95.22
2017-03-08T05:41:08.530Z,95.22
2017-03-08T05:42:18.937Z,95.41
2017-03-08T05:43:28.257Z,95.69
2017-03-08T05:44:38.001Z,95.69
2017-03-08T05:45:47.745Z,95.5
2017-03-08T05:46:57.483Z,95.45
2017-03-08T05:48:06.963Z,95.31
2017-03-08T05:49:16.717Z,95.69
2017-03-08T05:50:26.474Z,95.83
2017-03-08T05:51:36.642Z,95.88
2017-03-08T05:52:46.013Z,95.45
2017-03-08T05:53:56.057Z,95.93
2017-03-08T05:55:05.840Z,95.83
2017-03-08T05:56:15.617Z,95.83
2017-03-08T05:57:24.544Z,95.64
2017-03-08T05:58:33.893Z,96.21
2017-03-08T05:59:44.054Z,95.93
2017-03-08T06:00:52.996Z,95.83
2017-03-08T06:02:02.740Z,96.12
2017-03-08T06:03:11.664Z,96.5
2017-03-08T06:04:21.441Z,96.69
2017-03-08T06:05:30.761Z,96.5
2017-03-08T06:06:40.082Z,96.59
2017-03-08T06:07:50.239Z,96.69
2017-03-08T06:08:59.592Z,96.21
2017-03-08T06:10:09.347Z,96.69
2017-03-08T06:11:18.689Z,97.06
2017-03-08T06:12:27.609Z,96.78
2017-03-08T06:13:36.924Z,96.69
2017-03-08T06:14:46.654Z,96.69
2017-03-08T06:15:55.998Z,96.88
2017-03-08T06:17:05.345Z,96.69
2017-03-08T06:18:14.257Z,96.59
2017-03-08T06:19:24.102Z,96.64
2017-03-08T06:20:33.017Z,96.55
2017-03-08T06:21:41.979Z,96.78
2017-03-08T06:22:50.898Z,97.06
2017-03-08T06:24:00.233Z,97.25
2017-03-08T06:25:10.047Z,97.06
2017-03-08T06:26:19.792Z,96.88
2017-03-08T06:27:29.145Z,97.11
2017-03-08T06:28:39.285Z,97.25
2017-03-08T06:29:48.227Z,96.88
2017-03-08T06:30:57.435Z,97.11
2017-03-08T06:32:06.778Z,97.4
2017-03-08T06:33:16.116Z,97.11
2017-03-08T06:34:26.256Z,97.3
2017-03-08T06:35:35.984Z,97.11
2017-03-08T06:36:45.362Z,97.4
2017-03-08T06:37:54.698Z,97.49
2017-03-08T06:39:04.431Z,97.59
2017-03-08T06:40:13.790Z,97.59
2017-03-08T06:41:23.129Z,97.21
2017-03-08T06:42:32.870Z,97.4
2017-03-08T06:43:42.596Z,97.11
2017-03-08T06:44:52.341Z,97.11
2017-03-08T06:46:01.668Z,97.21
2017-03-08T06:47:10.993Z,97.21
2017-03-08T06:48:20.981Z,97.11
2017-03-08T06:49:30.324Z,97.4
2017-03-08T06:50:40.055Z,96.55
2017-03-08T06:51:49.407Z,96.64
2017-03-08T06:52:58.728Z,96.64
2017-03-08T06:54:08.200Z,96.73
2017-03-08T06:55:17.927Z,97.3
2017-03-08T06:56:27.254Z,97.11
2017-03-08T06:57:37.024Z,96.64
2017-03-08T06:58:46.347Z,96.73
2017-03-08T06:59:56.102Z,97.02
2017-03-08T07:01:05.861Z,96.73
2017-03-08T07:02:15.606Z,96.45
2017-03-08T07:03:25.368Z,97.11
2017-03-08T07:04:34.706Z,96.45
2017-03-08T07:05:43.633Z,97.3
2017-03-08T07:06:52.571Z,97.59
2017-03-08T07:08:03.129Z,97.11
2017-03-08T07:09:13.279Z,97.4
2017-03-08T07:10:23.021Z,97.11
2017-03-08T07:11:32.757Z,97.4
2017-03-08T07:12:42.489Z,97.11
2017-03-08T07:13:51.411Z,97.4
2017-03-08T07:15:00.740Z,96.92
2017-03-08T07:16:10.062Z,97.4
2017-03-08T07:17:19.396Z,97.21
2017-03-08T07:18:28.716Z,97.11
2017-03-08T07:19:38.854Z,96.64
2017-03-08T07:20:48.622Z,97.21
2017-03-08T07:21:58.371Z,97.4
2017-03-08T07:23:08.534Z,97.78
2017-03-08T07:24:17.865Z,97.4
2017-03-08T07:25:28.014Z,97.68
2017-03-08T07:26:37.768Z,97.68
2017-03-08T07:27:46.699Z,97.78
2017-03-08T07:28:56.026Z,97.78
2017-03-08T07:30:05.768Z,97.59
2017-03-08T07:31:16.070Z,97.78
2017-03-08T07:32:25.807Z,97.68
2017-03-08T07:33:35.944Z,97.49
2017-03-08T07:34:45.701Z,97.78
2017-03-08T07:35:55.043Z,97.3
2017-03-08T07:37:05.351Z,97.21
2017-03-08T07:38:15.095Z,97.78
2017-03-08T07:39:24.827Z,98.02
2017-03-08T07:40:34.168Z,97.54
2017-03-08T07:41:43.898Z,97.35
2017-03-08T07:42:53.813Z,98.11
2017-03-08T07:44:03.133Z,97.54
2017-03-08T07:45:12.469Z,97.83
2017-03-08T07:46:22.210Z,97.73
2017-03-08T07:47:31.535Z,98.02
2017-03-08T07:48:41.861Z,97.73
2017-03-08T07:49:51.179Z,97.73
2017-03-08T07:51:00.539Z,98.11
2017-03-08T07:52:09.457Z,97.54
2017-03-08T07:53:18.376Z,97.83
2017-03-08T07:54:27.459Z,97.54
2017-03-08T07:55:36.780Z,97.35
2017-03-08T07:56:45.700Z,97.54
2017-03-08T07:57:55.037Z,97.54
2017-03-08T07:59:04.383Z,97.54
2017-03-08T08:00:13.862Z,97.64
2017-03-08T08:01:22.796Z,97.64
2017-03-08T08:02:32.136Z,97.26
2017-03-08T08:03:41.467Z,98.02
2017-03-08T08:04:50.806Z,97.54
2017-03-08T08:05:59.878Z,97.64
2017-03-08T08:07:08.815Z,97.16
2017-03-08T08:08:18.969Z,97.16
2017-03-08T08:09:28.713Z,97.16
2017-03-08T08:10:37.621Z,97.35
2017-03-08T08:11:47.459Z,97.45
2017-03-08T08:12:56.786Z,97.83
2017-03-08T08:14:06.533Z,98.02
2017-03-08T08:15:16.274Z,97.92
2017-03-08T08:16:25.607Z,97.92
2017-03-08T08:17:34.990Z,98.02
2017-03-08T08:18:44.330Z,98.02
2017-03-08T08:19:54.066Z,97.83
2017-03-08T08:21:03.399Z,97.83
2017-03-08T08:22:13.560Z,98.11
2017-03-08T08:23:22.952Z,97.54
2017-03-08T08:24:32.692Z,97.54
2017-03-08T08:25:42.421Z,97.78
2017-03-08T08:26:52.144Z,97.59
2017-03-08T08:28:01.891Z,97.5
2017-03-08T08:29:10.929Z,97.45
2017-03-08T08:30:20.669Z,96.92
2017-03-08T08:31:30.059Z,96.92
2017-03-08T08:32:39.812Z,97.02
2017-03-08T08:33:49.136Z,96.73
2017-03-08T08:34:58.617Z,97.31
2017-03-08T08:36:08.753Z,96.83
2017-03-08T08:37:17.664Z,95.98
2017-03-08T08:38:27.033Z,96.36
2017-03-08T08:39:35.963Z,95.98
2017-03-08T08:40:44.980Z,96.17
2017-03-08T08:41:55.120Z,95.6
2017-03-08T08:43:04.442Z,95.41
2017-03-08T08:44:14.176Z,95.6
2017-03-08T08:45:24.321Z,95.6
2017-03-08T08:46:34.579Z,95.31
2017-03-08T08:47:44.738Z,95.79
2017-03-08T08:48:53.653Z,95.31
2017-03-08T08:50:03.422Z,94.93
2017-03-08T08:51:12.366Z,95.12
2017-03-08T08:52:21.965Z,95.5
2017-03-08T08:53:31.287Z,95.31
2017-03-08T08:54:40.221Z,95.03
2017-03-08T08:55:49.154Z,95.03
2017-03-08T08:56:58.087Z,94.84
2017-03-08T08:58:07.726Z,94.46
2017-03-08T08:59:17.469Z,94.84
2017-03-08T09:00:26.837Z,94.13
2017-03-08T09:01:36.575Z,94.6
2017-03-08T09:02:46.301Z,94.6
2017-03-08T09:03:55.628Z,94.32
2017-03-08T09:05:04.538Z,93.84
2017-03-08T09:06:14.276Z,93.37
2017-03-08T09:07:23.205Z,93.46
2017-03-08T09:08:32.531Z,93.18
2017-03-08T09:09:42.384Z,93.08
2017-03-08T09:10:51.336Z,92.52
2017-03-08T09:12:01.088Z,92.9
2017-03-08T09:13:10.869Z,92.42
2017-03-08T09:14:20.612Z,92.52
2017-03-08T09:15:30.205Z,91.75
2017-03-08T09:16:39.543Z,91.38
2017-03-08T09:17:48.891Z,91.56
2017-03-08T09:18:57.819Z,91.47
2017-03-08T09:20:07.971Z,91.56
2017-03-08T09:21:17.873Z,91.28
2017-03-08T09:22:27.619Z,91.52
2017-03-08T09:23:37.346Z,90.76
2017-03-08T09:24:46.700Z,90.95
2017-03-08T09:25:56.468Z,90.38
2017-03-08T09:27:07.104Z,89.81
2017-03-08T09:28:16.844Z,89.33
2017-03-08T09:29:25.780Z,89.14
2017-03-08T09:30:35.952Z,88.95
2017-03-08T09:31:45.683Z,89.05
2017-03-08T09:32:55.226Z,89.14
2017-03-08T09:34:04.980Z,88.95
2017-03-08T09:35:15.150Z,88.2
2017-03-08T09:36:24.083Z,87.72
2017-03-08T09:37:33.417Z,88.2
2017-03-08T09:38:43.577Z,87.24
2017-03-08T09:39:53.745Z,87.43
2017-03-08T09:41:03.482Z,87.48
2017-03-08T09:42:13.210Z,87.29
2017-03-08T09:43:22.570Z,86.91
2017-03-08T09:44:32.191Z,86.05
2017-03-08T09:45:41.133Z,85.68
2017-03-08T09:46:50.044Z,86.24
2017-03-08T09:47:59.789Z,86.53
2017-03-08T09:49:09.531Z,86.24
2017-03-08T09:50:19.109Z,85.39
2017-03-08T09:51:28.028Z,85.2
2017-03-08T09:52:37.766Z,85.11
2017-03-08T09:53:47.122Z,85.01
2017-03-08T09:54:57.284Z,85.2
2017-03-08T09:56:06.803Z,84.63
2017-03-08T09:57:16.143Z,84.16
2017-03-08T09:58:25.480Z,84.44
2017-03-08T09:59:34.814Z,83.68
2017-03-08T10:00:43.744Z,84.34
2017-03-08T10:01:53.643Z,83.87
2017-03-08T10:03:03.396Z,83.59
2017-03-08T10:04:13.138Z,83.49
2017-03-08T10:05:22.870Z,83.11
2017-03-08T10:06:32.201Z,83.3
2017-03-08T10:07:42.093Z,82.92
2017-03-08T10:08:51.846Z,83.11
2017-03-08T10:10:01.619Z,83.44
2017-03-08T10:11:10.650Z,82.1
2017-03-08T10:12:20.806Z,82.29
2017-03-08T10:13:30.688Z,82.1
2017-03-08T10:14:40.038Z,82.1
2017-03-08T10:15:49.380Z,81.92
2017-03-08T10:16:59.130Z,82.01
2017-03-08T10:18:08.879Z,81.63
2017-03-08T10:19:17.885Z,81.25
2017-03-08T10:20:28.034Z,80.87
2017-03-08T10:21:37.365Z,80.4
2017-03-08T10:22:46.293Z,80.3
2017-03-08T10:23:56.041Z,80.21
2017-03-08T10:25:05.424Z,79.25
2017-03-08T10:26:15.562Z,79.54
2017-03-08T10:27:24.902Z,79.92
2017-03-08T10:28:34.664Z,79.83
2017-03-08T10:29:44.400Z,79.16
2017-03-08T10:30:53.891Z,79.39
2017-03-08T10:32:03.242Z,79.11
2017-03-08T10:33:12.570Z,78.82
2017-03-08T10:34:21.926Z,78.91
2017-03-08T10:35:31.304Z,78.06
2017-03-08T10:36:40.885Z,77.77
2017-03-08T10:37:49.805Z,77.97
2017-03-08T10:38:58.729Z,77.77
2017-03-08T10:40:08.061Z,77.49
2017-03-08T10:41:16.992Z,77.11
2017-03-08T10:42:26.439Z,77.3
2017-03-08T10:43:35.405Z,77.49
2017-03-08T10:44:44.730Z,77.11
2017-03-08T10:45:54.075Z,76.82
2017-03-08T10:47:03.010Z,76.44
2017-03-08T10:48:13.329Z,76.82
2017-03-08T10:49:22.674Z,76.82
2017-03-08T10:50:31.992Z,76.63
2017-03-08T10:51:42.137Z,76.16
2017-03-08T10:52:51.480Z,76.35
2017-03-08T10:54:00.546Z,76.35
2017-03-08T10:55:09.483Z,76.35
2017-03-08T10:56:18.803Z,76.54
2017-03-08T10:57:27.749Z,76.35
2017-03-08T10:58:37.915Z,76.35
2017-03-08T10:59:47.966Z,76.54
2017-03-08T11:00:58.985Z,76.54
2017-03-08T11:02:09.165Z,75.68
2017-03-08T11:03:18.088Z,75.68
2017-03-08T11:04:27.425Z,76.06
2017-03-08T11:05:37.641Z,75.87
2017-03-08T11:06:47.396Z,75.21
2017-03-08T11:07:57.966Z,75.02
2017-03-08T11:09:08.137Z,75.21
2017-03-08T11:10:18.745Z,74.44
2017-03-08T11:11:28.150Z,74.39
2017-03-08T11:12:37.879Z,74.48
2017-03-08T11:13:47.620Z,74.48
2017-03-08T11:14:58.580Z,73.82
2017-03-08T11:16:08.336Z,73.53
2017-03-08T11:17:18.116Z,74.1
2017-03-08T11:18:27.467Z,73.63
2017-03-08T11:19:38.010Z,73.25
2017-03-08T11:20:48.157Z,73.15
2017-03-08T11:21:58.316Z,72.86
2017-03-08T11:23:09.141Z,72.58
2017-03-08T11:24:18.868Z,72.39
2017-03-08T11:25:28.603Z,72.39
2017-03-08T11:26:38.787Z,72.49
2017-03-08T11:27:48.918Z,72.49
2017-03-08T11:28:57.886Z,72.3
2017-03-08T11:30:08.070Z,72.01
2017-03-08T11:31:18.222Z,71.91
2017-03-08T11:32:27.973Z,72.11
2017-03-08T11:33:37.715Z,72.11
2017-03-08T11:34:48.262Z,71.82
2017-03-08T11:35:58.019Z,71.44
2017-03-08T11:37:07.772Z,71.25
2017-03-08T11:38:17.511Z,71.25
2017-03-08T11:39:27.672Z,71.25
2017-03-08T11:40:37.915Z,71.72
2017-03-08T11:41:46.838Z,72.01
2017-03-08T11:42:56.161Z,71.82
2017-03-08T11:44:05.889Z,72.58
2017-03-08T11:45:15.222Z,72.67
2017-03-08T11:46:24.704Z,72.11
2017-03-08T11:47:34.433Z,71.91
2017-03-08T11:48:43.358Z,72.11
2017-03-08T11:49:53.093Z,71.72
2017-03-08T11:51:02.839Z,71.82
2017-03-08T11:52:11.824Z,71.63
2017-03-08T11:53:21.148Z,71.34
2017-03-08T11:54:30.468Z,71.53
2017-03-08T11:55:39.807Z,71.06
2017-03-08T11:56:49.534Z,70.68
2017-03-08T11:57:59.941Z,71.06
2017-03-08T11:59:08.872Z,71.34
2017-03-08T12:00:19.049Z,71.82
2017-03-08T12:01:29.191Z,71.15
2017-03-08T12:02:38.538Z,71.44
2017-03-08T12:03:48.314Z,71.53
2017-03-08T12:04:57.668Z,71.72
2017-03-08T12:06:06.988Z,71.53
2017-03-08T12:07:15.910Z,71.34
2017-03-08T12:08:25.660Z,70.77
2017-03-08T12:09:34.724Z,71.25
2017-03-08T12:10:44.060Z,71.63
2017-03-08T12:11:54.214Z,71.25
2017-03-08T12:13:03.950Z,71.63
2017-03-08T12:14:13.313Z,71.53
2017-03-08T12:15:23.214Z,71.53
2017-03-08T12:16:32.547Z,70.97
2017-03-08T12:17:41.870Z,70.77
2017-03-08T12:18:52.007Z,71.25
2017-03-08T12:20:02.154Z,71.82
2017-03-08T12:21:12.082Z,71.82
2017-03-08T12:22:21.028Z,71.15
2017-03-08T12:23:30.782Z,71.06
2017-03-08T12:24:40.123Z,71.78
2017-03-08T12:25:49.848Z,70.97
2017-03-08T12:27:00.645Z,71.06
2017-03-08T12:28:10.393Z,71.06
2017-03-08T12:29:20.123Z,71.72
2017-03-08T12:30:29.848Z,71.88
2017-03-08T12:31:38.769Z,72.01
2017-03-08T12:32:47.838Z,72.11
2017-03-08T12:33:57.564Z,71.82
2017-03-08T12:35:06.896Z,71.72
2017-03-08T12:36:16.211Z,72.11
2017-03-08T12:37:26.758Z,72.11
2017-03-08T12:38:36.426Z,71.34
2017-03-08T12:39:46.175Z,71.82
2017-03-08T12:40:55.913Z,71.15
2017-03-08T12:42:04.824Z,72.3
2017-03-08T12:43:14.142Z,72.49
2017-03-08T12:44:24.130Z,72.67
2017-03-08T12:45:33.472Z,72.67
2017-03-08T12:46:42.388Z,73.34
2017-03-08T12:47:51.715Z,73.15
2017-03-08T12:49:01.074Z,73.53
2017-03-08T12:50:10.713Z,73.49
2017-03-08T12:51:20.076Z,73.3
2017-03-08T12:52:30.249Z,73.69
2017-03-08T12:53:39.987Z,73.49
2017-03-08T12:54:49.309Z,72.92
2017-03-08T12:55:59.082Z,73.88
2017-03-08T12:57:08.828Z,73.69
2017-03-08T12:58:18.966Z,73.78
2017-03-08T12:59:27.874Z,73.78
2017-03-08T13:00:37.627Z,73.78
2017-03-08T13:01:47.016Z,74.82
2017-03-08T13:02:56.344Z,75.4
2017-03-08T13:04:06.067Z,76.16
2017-03-08T13:05:14.992Z,75.3
2017-03-08T13:06:23.931Z,75.02
2017-03-08T13:07:33.427Z,75.3
2017-03-08T13:08:43.168Z,75.78
2017-03-08T13:09:52.922Z,75.78
2017-03-08T13:11:02.677Z,74.82
2017-03-08T13:12:12.406Z,74.63
2017-03-08T13:13:22.600Z,74.82
2017-03-08T13:14:31.946Z,75.11
2017-03-08T13:15:41.683Z,75.21
2017-03-08T13:16:51.832Z,75.02
2017-03-08T13:18:01.169Z,74.63
2017-03-08T13:19:10.230Z,74.26
2017-03-08T13:20:19.964Z,73.49
2017-03-08T13:21:29.279Z,73.21
2017-03-08T13:22:39.005Z,73.21
2017-03-08T13:23:48.795Z,73.11
2017-03-08T13:24:58.811Z,72.92
2017-03-08T13:26:08.150Z,73.3
2017-03-08T13:27:17.489Z,73.21
2017-03-08T13:28:26.839Z,73.69
2017-03-08T13:29:36.972Z,73.78
2017-03-08T13:30:46.569Z,73.88
2017-03-08T13:31:55.915Z,74.07
2017-03-08T13:33:05.245Z,75.49
2017-03-08T13:34:14.994Z,76.06
2017-03-08T13:35:24.732Z,76.73
2017-03-08T13:36:33.836Z,78.06
2017-03-08T13:37:43.565Z,78.06
2017-03-08T13:38:53.288Z,78.21
2017-03-08T13:40:03.433Z,79.54
2017-03-08T13:41:13.174Z,80.49
2017-03-08T13:42:22.658Z,81.25
2017-03-08T13:43:31.998Z,82.49
2017-03-08T13:44:41.331Z,83.15
2017-03-08T13:45:50.245Z,83.62
2017-03-08T13:46:59.178Z,84.1
2017-03-08T13:48:08.142Z,85.05
2017-03-08T13:49:17.467Z,85.43
2017-03-08T13:50:26.778Z,85.62
2017-03-08T13:51:36.505Z,86.24
2017-03-08T13:52:45.415Z,86.34
2017-03-08T13:53:54.375Z,87.48
2017-03-08T13:55:03.704Z,87.76
2017-03-08T13:56:13.037Z,87.48
2017-03-08T13:57:22.801Z,88.24
2017-03-08T13:58:32.127Z,89.09
2017-03-08T13:59:42.002Z,89.09
2017-03-08T14:00:50.913Z,89.76
2017-03-08T14:02:00.232Z,89
2017-03-08T14:03:10.386Z,89.19
2017-03-08T14:04:19.715Z,89
2017-03-08T14:05:28.668Z,89.09
2017-03-08T14:06:37.589Z,89.47
2017-03-08T14:07:46.512Z,89.76
2017-03-08T14:08:55.454Z,90.33
2017-03-08T14:10:04.791Z,90.14
2017-03-08T14:11:14.376Z,90.52
2017-03-08T14:12:23.704Z,91.56
2017-03-08T14:13:33.019Z,92.04
2017-03-08T14:14:42.779Z,91.85
2017-03-08T14:15:51.686Z,91.56
2017-03-08T14:17:01.417Z,92.71
2017-03-08T14:18:10.387Z,92.04
2017-03-08T14:19:20.112Z,92.56
2017-03-08T14:20:30.316Z,92.09
2017-03-08T14:21:39.632Z,91.61
2017-03-08T14:22:49.371Z,92.09
2017-03-08T14:23:59.124Z,91.42
2017-03-08T14:25:08.861Z,92.66
2017-03-08T14:26:18.181Z,92.47
2017-03-08T14:27:27.902Z,92.75
2017-03-08T14:28:37.227Z,92.75
2017-03-08T14:29:46.563Z,92.75
2017-03-08T14:30:55.889Z,93.51
2017-03-08T14:32:05.209Z,93.13
2017-03-08T14:33:14.152Z,93.13
2017-03-08T14:34:24.296Z,93.89
2017-03-08T14:35:33.652Z,92.75
2017-03-08T14:36:42.593Z,92.75
2017-03-08T14:37:51.930Z,93.32
2017-03-08T14:39:01.255Z,93.23
2017-03-08T14:40:10.976Z,93.04
2017-03-08T14:41:19.878Z,93.89
2017-03-08T14:42:30.183Z,93.32
2017-03-08T14:43:39.903Z,93.99
2017-03-08T14:44:49.649Z,94.37
2017-03-08T14:45:58.586Z,94.56
2017-03-08T14:47:08.338Z,94.74
2017-03-08T14:48:18.462Z,95.22
2017-03-08T14:49:27.801Z,95.98
2017-03-08T14:50:37.938Z,96.08
2017-03-08T14:51:46.880Z,95.41
2017-03-08T14:52:56.610Z,95.41
2017-03-08T14:54:06.185Z,96.17
2017-03-08T14:55:15.516Z,95.6
2017-03-08T14:56:25.660Z,95.22
2017-03-08T14:57:34.593Z,95.89
2017-03-08T14:58:44.349Z,96.36
2017-03-08T14:59:53.732Z,97.12